Time;durP1;ratioP1;P1;durP2;ratioP2;P2;SDS_P1;SDS_P2;PMS_P1;PMS_P2;Temp;Humidity;BMP_temperature;BMP_pressure;BME280_temperature;BME280_humidity;BME280_pressure;Samples;Min_cycle;Max_cycle;Signal;HPM_P1;HPM_P2
2021/03/16 00:01:03;;;;;;;41.70;5.55;;;;;;;;;;4991016;28;20101;-77
2021/03/16 00:03:30;;;;;;;46.83;6.22;;;;;;;;;;5006896;28;20132;-77
2021/03/16 00:05:56;;;;;;;30.90;5.15;;;;;;;;;;4998990;28;20045;-76
2021/03/16 00:08:22;;;;;;;43.38;4.65;;;;;;;;;;5008282;28;20603;-75
2021/03/16 00:10:48;;;;;;;33.92;4.30;;;;;;;;;;4998118;28;20042;-76
2021/03/16 00:13:15;;;;;;;38.28;5.60;;;;;;;;;;4999415;28;20056;-77
2021/03/16 00:15:41;;;;;;;38.20;5.35;;;;;;;;;;4995191;28;20038;-76
2021/03/16 00:18:14;;;;;;;33.20;5.03;;;;;;;;;;4989590;28;20062;-77
2021/03/16 00:20:40;;;;;;;39.92;4.60;;;;;;;;;;5002961;28;20064;-76
2021/03/16 00:23:07;;;;;;;29.60;4.30;;;;;;;;;;4998606;28;20340;-76
2021/03/16 00:25:33;;;;;;;36.42;4.93;;;;;;;;;;4994334;28;20053;-77
2021/03/16 00:28:00;;;;;;;51.60;5.55;;;;;;;;;;4994332;28;20488;-78
2021/03/16 00:30:27;;;;;;;39.28;5.25;;;;;;;;;;4977697;28;20050;-77
2021/03/16 00:32:53;;;;;;;38.75;5.18;;;;;;;;;;5001936;28;20501;-77
2021/03/16 00:35:19;;;;;;;32.60;4.30;;;;;;;;;;5002741;28;20389;-77
2021/03/16 00:37:45;;;;;;;33.72;4.05;;;;;;;;;;4989751;28;20065;-78
2021/03/16 00:40:12;;;;;;;37.80;4.03;;;;;;;;;;4980714;28;20433;-78
2021/03/16 00:42:38;;;;;;;42.05;5.63;;;;;;;;;;5004513;28;20046;-79
2021/03/16 00:45:08;;;;;;;33.28;4.43;;;;;;;;;;4999575;28;20046;-78
2021/03/16 00:47:34;;;;;;;35.72;5.47;;;;;;;;;;4994620;28;20050;-78
2021/03/16 00:50:04;;;;;;;41.60;4.95;;;;;;;;;;5000071;28;20054;-78
2021/03/16 00:52:31;;;;;;;35.20;4.70;;;;;;;;;;5007291;28;20524;-78
2021/03/16 00:54:57;;;;;;;31.27;4.50;;;;;;;;;;5008515;28;20604;-79
2021/03/16 00:57:23;;;;;;;43.45;6.60;;;;;;;;;;5008309;28;20080;-78
2021/03/16 00:59:50;;;;;;;34.55;4.75;;;;;;;;;;5005491;28;20070;-78
2021/03/16 01:02:18;;;;;;;41.60;5.85;;;;;;;;;;4975561;28;20081;-79
2021/03/16 01:04:45;;;;;;;38.53;5.68;;;;;;;;;;4984678;28;20058;-78
2021/03/16 01:07:11;;;;;;;39.65;4.38;;;;;;;;;;4995106;28;20576;-78
2021/03/16 01:09:37;;;;;;;40.58;4.82;;;;;;;;;;4988089;28;20042;-79
2021/03/16 01:12:04;;;;;;;40.45;5.50;;;;;;;;;;4982170;28;20502;-80
2021/03/16 01:14:31;;;;;;;37.25;4.75;;;;;;;;;;4980894;28;20035;-77
2021/03/16 01:16:57;;;;;;;34.65;4.93;;;;;;;;;;5007183;28;20485;-79
2021/03/16 01:19:23;;;;;;;26.88;4.43;;;;;;;;;;4991860;28;20038;-76
2021/03/16 01:21:49;;;;;;;39.25;5.13;;;;;;;;;;5003035;28;20064;-76
2021/03/16 01:24:15;;;;;;;40.78;5.13;;;;;;;;;;5003946;28;20466;-77
2021/03/16 01:26:42;;;;;;;33.90;5.57;;;;;;;;;;4996571;28;20060;-77
2021/03/16 01:29:09;;;;;;;37.30;5.80;;;;;;;;;;5000824;28;20065;-77
2021/03/16 01:31:36;;;;;;;24.75;4.30;;;;;;;;;;4998792;28;20160;-76
2021/03/16 01:34:02;;;;;;;30.17;3.97;;;;;;;;;;5006376;28;20042;-77
2021/03/16 01:36:29;;;;;;;25.63;4.07;;;;;;;;;;5006780;28;20507;-77
2021/03/16 01:38:55;;;;;;;30.48;4.50;;;;;;;;;;5006938;28;20057;-77
2021/03/16 01:41:21;;;;;;;34.30;4.55;;;;;;;;;;5007642;28;20054;-77
2021/03/16 01:43:47;;;;;;;32.40;4.38;;;;;;;;;;5001211;28;20367;-77
2021/03/16 01:46:13;;;;;;;37.80;5.18;;;;;;;;;;4989323;28;20033;-77
2021/03/16 01:48:40;;;;;;;32.03;4.65;;;;;;;;;;4990773;28;20482;-76
2021/03/16 01:51:08;;;;;;;33.33;5.28;;;;;;;;;;4979851;28;20046;-77
2021/03/16 01:53:34;;;;;;;27.05;3.65;;;;;;;;;;4975540;28;20139;-77
2021/03/16 01:56:01;;;;;;;36.53;5.43;;;;;;;;;;4958286;28;20470;-77
2021/03/16 01:58:27;;;;;;;28.80;4.78;;;;;;;;;;4974353;28;20113;-77
2021/03/16 02:00:54;;;;;;;27.75;4.13;;;;;;;;;;4975704;28;20117;-77
2021/03/16 02:03:20;;;;;;;25.52;3.85;;;;;;;;;;4973632;28;20045;-77
2021/03/16 02:05:46;;;;;;;34.92;5.00;;;;;;;;;;4974796;28;20039;-76
2021/03/16 02:08:31;;;;;;;32.60;4.63;;;;;;;;;;4973758;28;20066;-77
2021/03/16 02:11:05;;;;;;;34.33;4.90;;;;;;;;;;4975013;28;20077;-76
2021/03/16 02:13:50;;;;;;;33.25;4.93;;;;;;;;;;4973433;28;20039;-76
2021/03/16 02:16:23;;;;;;;30.35;4.00;;;;;;;;;;4975098;28;20518;-76
2021/03/16 02:18:53;;;;;;;31.42;4.47;;;;;;;;;;4974950;28;20038;-76
2021/03/16 02:21:20;;;;;;;39.67;4.20;;;;;;;;;;4974688;28;20042;-77
2021/03/16 02:23:58;;;;;;;42.80;4.88;;;;;;;;;;4975243;28;20430;-77
2021/03/16 02:26:24;;;;;;;34.70;5.68;;;;;;;;;;4974745;28;20043;-77
2021/03/16 02:29:08;;;;;;;31.77;4.70;;;;;;;;;;4975350;28;20043;-78
2021/03/16 02:31:38;;;;;;;30.33;4.57;;;;;;;;;;4975120;28;20046;-76
2021/03/16 02:34:05;;;;;;;32.92;4.35;;;;;;;;;;4968648;28;20047;-78
2021/03/16 02:36:32;;;;;;;37.22;4.63;;;;;;;;;;4974268;28;20035;-78
2021/03/16 02:38:58;;;;;;;31.65;4.50;;;;;;;;;;4971715;28;20089;-77
2021/03/16 02:41:25;;;;;;;28.80;4.50;;;;;;;;;;4974610;28;20046;-77
2021/03/16 02:43:52;;;;;;;43.47;3.70;;;;;;;;;;4973387;28;20074;-77
2021/03/16 02:46:19;;;;;;;32.58;4.28;;;;;;;;;;4973386;28;20041;-78
2021/03/16 02:48:46;;;;;;;33.88;4.32;;;;;;;;;;4973543;28;20077;-77
2021/03/16 02:51:13;;;;;;;25.05;3.65;;;;;;;;;;4989845;28;20054;-77
2021/03/16 02:53:40;;;;;;;30.95;5.20;;;;;;;;;;5005415;28;20424;-78
2021/03/16 02:56:07;;;;;;;34.33;4.35;;;;;;;;;;5004792;28;20046;-77
2021/03/16 02:58:34;;;;;;;33.60;3.80;;;;;;;;;;4988343;28;20065;-77
2021/03/16 03:01:00;;;;;;;35.42;4.80;;;;;;;;;;4990102;28;20153;-78
2021/03/16 03:03:27;;;;;;;30.75;4.10;;;;;;;;;;5004959;28;20046;-78
2021/03/16 03:05:54;;;;;;;40.22;5.68;;;;;;;;;;4988831;28;20421;-77
2021/03/16 03:08:20;;;;;;;32.20;3.80;;;;;;;;;;4984038;28;20080;-78
2021/03/16 03:10:47;;;;;;;42.47;5.55;;;;;;;;;;4998718;28;20550;-77
2021/03/16 03:13:13;;;;;;;37.63;4.60;;;;;;;;;;5005861;28;20516;-78
2021/03/16 03:15:39;;;;;;;40.80;4.72;;;;;;;;;;5011920;28;20103;-77
2021/03/16 03:18:06;;;;;;;34.85;4.50;;;;;;;;;;5007062;28;20036;-77
2021/03/16 03:20:36;;;;;;;38.50;4.65;;;;;;;;;;5006008;28;20046;-77
2021/03/16 03:23:06;;;;;;;32.58;3.92;;;;;;;;;;5006510;28;20481;-77
2021/03/16 03:25:39;;;;;;;41.00;4.65;;;;;;;;;;5010162;28;20121;-76
2021/03/16 03:28:07;;;;;;;40.42;5.22;;;;;;;;;;5005442;28;20084;-77
2021/03/16 03:30:34;;;;;;;38.97;5.30;;;;;;;;;;5004605;28;20073;-76
2021/03/16 03:33:03;;;;;;;38.70;4.97;;;;;;;;;;5007290;28;20052;-77
2021/03/16 03:35:29;;;;;;;37.05;5.53;;;;;;;;;;5007303;28;20065;-78
2021/03/16 03:37:56;;;;;;;27.20;4.25;;;;;;;;;;5001600;28;20043;-77
2021/03/16 03:40:24;;;;;;;31.00;4.10;;;;;;;;;;5001121;28;20073;-77
2021/03/16 03:42:51;;;;;;;40.95;4.70;;;;;;;;;;5010675;28;20499;-78
2021/03/16 03:45:18;;;;;;;33.38;4.47;;;;;;;;;;5004020;28;20504;-79
2021/03/16 03:47:44;;;;;;;36.40;4.10;;;;;;;;;;5004116;28;20102;-77
2021/03/16 03:50:13;;;;;;;28.42;3.70;;;;;;;;;;5004189;28;20493;-77
2021/03/16 03:52:40;;;;;;;33.00;4.13;;;;;;;;;;4983272;28;20087;-78
2021/03/16 03:55:07;;;;;;;29.90;3.78;;;;;;;;;;5006579;28;20405;-77
2021/03/16 03:57:34;;;;;;;34.83;5.10;;;;;;;;;;4999197;28;20056;-77
2021/03/16 04:00:00;;;;;;;30.20;4.22;;;;;;;;;;5003124;28;20045;-77
2021/03/16 04:02:27;;;;;;;24.50;4.30;;;;;;;;;;5008359;28;20038;-77
2021/03/16 04:04:54;;;;;;;34.25;5.03;;;;;;;;;;4983648;28;20130;-77
2021/03/16 04:07:20;;;;;;;32.70;3.85;;;;;;;;;;4982880;28;20456;-77
2021/03/16 04:09:46;;;;;;;40.75;4.18;;;;;;;;;;4988167;28;20371;-77
2021/03/16 04:12:13;;;;;;;26.67;4.13;;;;;;;;;;5008945;28;20065;-77
2021/03/16 04:14:40;;;;;;;34.13;4.40;;;;;;;;;;5000029;28;20046;-77
2021/03/16 04:17:06;;;;;;;28.98;4.28;;;;;;;;;;5001850;28;20053;-78
2021/03/16 04:19:33;;;;;;;23.13;3.78;;;;;;;;;;5003060;28;20107;-77
2021/03/16 04:21:59;;;;;;;35.83;4.07;;;;;;;;;;5003576;28;20041;-77
2021/03/16 04:24:25;;;;;;;30.63;3.53;;;;;;;;;;5001646;28;20083;-76
2021/03/16 04:26:52;;;;;;;27.52;3.75;;;;;;;;;;5002659;28;20049;-77
2021/03/16 04:29:18;;;;;;;27.80;3.22;;;;;;;;;;5006063;28;20046;-77
2021/03/16 04:31:44;;;;;;;31.80;3.63;;;;;;;;;;5007407;28;20038;-76
2021/03/16 04:34:10;;;;;;;28.63;4.00;;;;;;;;;;4982354;28;20069;-77
2021/03/16 04:36:36;;;;;;;37.05;3.08;;;;;;;;;;4994641;28;20355;-77
2021/03/16 04:39:03;;;;;;;29.05;3.28;;;;;;;;;;4978425;28;20050;-76
2021/03/16 04:41:29;;;;;;;33.22;4.15;;;;;;;;;;4999971;28;20085;-76
2021/03/16 04:43:55;;;;;;;40.60;5.15;;;;;;;;;;4983207;28;20038;-77
2021/03/16 04:46:22;;;;;;;27.85;3.95;;;;;;;;;;5008712;28;20062;-77
2021/03/16 04:48:48;;;;;;;27.98;3.47;;;;;;;;;;5008108;28;20061;-77
2021/03/16 04:51:16;;;;;;;34.83;3.42;;;;;;;;;;4990064;28;20130;-77
2021/03/16 04:53:42;;;;;;;27.50;3.28;;;;;;;;;;5003903;28;20050;-77
2021/03/16 04:56:08;;;;;;;29.73;3.38;;;;;;;;;;4988264;28;20079;-77
2021/03/16 04:58:34;;;;;;;20.90;3.13;;;;;;;;;;5006723;28;20054;-76
2021/03/16 05:01:00;;;;;;;29.17;3.17;;;;;;;;;;4985203;28;20136;-77
2021/03/16 05:03:26;;;;;;;31.23;3.17;;;;;;;;;;5005137;28;20474;-77
2021/03/16 05:05:53;;;;;;;32.05;3.45;;;;;;;;;;5001617;28;20485;-77
2021/03/16 05:08:19;;;;;;;19.90;2.95;;;;;;;;;;4994990;28;20501;-76
2021/03/16 05:10:45;;;;;;;27.35;4.07;;;;;;;;;;4978775;28;20042;-76
2021/03/16 05:13:11;;;;;;;29.42;3.42;;;;;;;;;;5002794;28;20058;-77
2021/03/16 05:15:37;;;;;;;42.13;4.85;;;;;;;;;;4995754;28;20140;-76
2021/03/16 05:18:04;;;;;;;36.38;4.00;;;;;;;;;;5001152;28;20048;-77
2021/03/16 05:20:31;;;;;;;28.00;4.57;;;;;;;;;;4979186;28;20048;-76
2021/03/16 05:22:57;;;;;;;29.35;3.53;;;;;;;;;;4986735;28;20232;-77
2021/03/16 05:25:23;;;;;;;29.08;3.78;;;;;;;;;;4997580;28;20046;-76
2021/03/16 05:27:49;;;;;;;33.42;4.20;;;;;;;;;;4995987;28;20045;-77
2021/03/16 05:30:16;;;;;;;30.27;3.72;;;;;;;;;;4998897;28;20045;-77
2021/03/16 05:32:42;;;;;;;39.47;3.95;;;;;;;;;;4998976;28;20258;-77
2021/03/16 05:35:09;;;;;;;32.00;4.10;;;;;;;;;;5008859;28;20045;-77
2021/03/16 05:37:36;;;;;;;34.85;4.05;;;;;;;;;;5002625;28;20081;-77
2021/03/16 05:40:02;;;;;;;29.17;3.80;;;;;;;;;;5003752;28;20046;-77
2021/03/16 05:42:28;;;;;;;35.20;4.00;;;;;;;;;;5005266;28;20034;-77
2021/03/16 05:44:55;;;;;;;28.95;3.85;;;;;;;;;;4996848;28;20093;-78
2021/03/16 05:47:22;;;;;;;24.63;3.45;;;;;;;;;;5007498;28;20117;-77
2021/03/16 05:49:52;;;;;;;27.92;3.97;;;;;;;;;;4993215;28;20038;-76
2021/03/16 05:52:21;;;;;;;30.85;3.88;;;;;;;;;;5003894;28;20042;-76
2021/03/16 05:54:47;;;;;;;36.72;3.80;;;;;;;;;;5004371;28;20046;-77
2021/03/16 05:57:13;;;;;;;37.55;4.20;;;;;;;;;;5009564;28;20462;-77
2021/03/16 05:59:39;;;;;;;27.13;3.67;;;;;;;;;;4984013;28;20396;-76
2021/03/16 06:02:05;;;;;;;24.92;3.97;;;;;;;;;;5004805;28;20042;-79
2021/03/16 06:04:32;;;;;;;35.20;3.50;;;;;;;;;;4979043;28;20038;-76
2021/03/16 06:06:58;;;;;;;27.95;3.83;;;;;;;;;;5000561;28;20045;-79
2021/03/16 06:09:24;;;;;;;26.48;3.15;;;;;;;;;;5012416;28;20093;-79
2021/03/16 06:11:51;;;;;;;25.05;3.63;;;;;;;;;;5007473;28;20042;-79
2021/03/16 06:14:17;;;;;;;40.60;4.05;;;;;;;;;;5011275;28;20054;-78
2021/03/16 06:16:43;;;;;;;32.10;3.97;;;;;;;;;;5007928;28;20034;-80
2021/03/16 06:19:10;;;;;;;30.90;3.92;;;;;;;;;;4989473;28;20049;-79
2021/03/16 06:21:37;;;;;;;32.08;3.47;;;;;;;;;;4991181;28;20042;-76
2021/03/16 06:24:03;;;;;;;29.45;3.92;;;;;;;;;;5009846;28;20041;-79
2021/03/16 06:26:32;;;;;;;31.55;3.60;;;;;;;;;;5001540;28;20050;-75
2021/03/16 06:29:08;;;;;;;35.85;4.22;;;;;;;;;;5010295;28;20041;-80
2021/03/16 06:31:35;;;;;;;35.72;3.95;;;;;;;;;;4985347;28;20095;-79
2021/03/16 06:34:01;;;;;;;32.60;4.38;;;;;;;;;;5000333;28;20030;-79
2021/03/16 06:36:29;;;;;;;32.05;3.95;;;;;;;;;;5000850;28;20037;-78
2021/03/16 06:38:55;;;;;;;27.83;3.72;;;;;;;;;;5010879;28;20053;-77
2021/03/16 06:41:22;;;;;;;30.52;3.33;;;;;;;;;;5013569;28;20390;-80
2021/03/16 06:43:59;;;;;;;24.90;3.42;;;;;;;;;;5010819;28;20046;-79
2021/03/16 06:46:28;;;;;;;29.30;3.55;;;;;;;;;;5017323;28;20054;-79
2021/03/16 06:48:54;;;;;;;24.98;3.35;;;;;;;;;;5005785;28;20049;-78
2021/03/16 06:51:25;;;;;;;28.08;2.90;;;;;;;;;;4993100;28;20505;-79
2021/03/16 06:53:51;;;;;;;24.77;3.97;;;;;;;;;;4994681;28;20057;-78
2021/03/16 06:56:26;;;;;;;27.30;3.08;;;;;;;;;;5006496;28;20096;-80
2021/03/16 06:58:52;;;;;;;25.02;3.28;;;;;;;;;;4995837;28;20211;-80
2021/03/16 07:01:20;;;;;;;30.85;3.33;;;;;;;;;;4994705;28;20053;-80
2021/03/16 07:03:47;;;;;;;22.60;3.65;;;;;;;;;;4994480;28;20125;-80
2021/03/16 07:06:16;;;;;;;23.90;4.18;;;;;;;;;;4999837;28;20035;-81
2021/03/16 07:08:42;;;;;;;21.83;3.92;;;;;;;;;;5003779;28;20039;-80
2021/03/16 07:11:16;;;;;;;20.38;2.67;;;;;;;;;;5001275;28;20385;-81
2021/03/16 07:13:43;;;;;;;23.88;3.45;;;;;;;;;;4994101;28;20069;-79
2021/03/16 07:16:10;;;;;;;20.40;3.00;;;;;;;;;;4987207;28;20042;-80
2021/03/16 07:18:37;;;;;;;19.38;2.88;;;;;;;;;;4983386;28;20057;-80
2021/03/16 07:21:08;;;;;;;29.35;3.88;;;;;;;;;;5004575;28;20065;-79
2021/03/16 07:23:54;;;;;;;23.15;3.45;;;;;;;;;;5004352;28;20038;-76
2021/03/16 07:26:20;;;;;;;22.33;3.60;;;;;;;;;;5013361;28;20175;-78
2021/03/16 07:28:47;;;;;;;29.05;4.15;;;;;;;;;;5010976;28;20065;-74
2021/03/16 07:31:13;;;;;;;24.58;3.85;;;;;;;;;;4982361;28;20043;-74
2021/03/16 07:33:40;;;;;;;22.95;3.35;;;;;;;;;;5002552;28;20112;-77
2021/03/16 07:36:06;;;;;;;20.67;3.10;;;;;;;;;;4994914;28;20050;-77
2021/03/16 07:38:34;;;;;;;23.17;3.78;;;;;;;;;;5010637;28;20045;-77
2021/03/16 07:41:00;;;;;;;22.45;4.00;;;;;;;;;;4976319;28;20401;-77
2021/03/16 07:43:45;;;;;;;19.10;3.55;;;;;;;;;;4984158;28;20038;-77
2021/03/16 07:46:16;;;;;;;22.63;2.70;;;;;;;;;;5011807;28;20096;-77
2021/03/16 07:48:46;;;;;;;21.50;3.38;;;;;;;;;;5000523;28;20038;-78
2021/03/16 07:51:13;;;;;;;24.63;3.97;;;;;;;;;;4996703;28;20061;-78
2021/03/16 07:53:41;;;;;;;15.20;2.47;;;;;;;;;;5001329;28;20046;-82
2021/03/16 07:56:08;;;;;;;21.58;3.10;;;;;;;;;;4994270;28;20042;-78
2021/03/16 07:58:43;;;;;;;20.92;3.00;;;;;;;;;;4993001;28;20473;-75
2021/03/16 08:01:09;;;;;;;22.63;3.50;;;;;;;;;;4980646;28;20106;-78
2021/03/16 08:03:35;;;;;;;17.13;2.97;;;;;;;;;;4971310;28;20057;-77
2021/03/16 08:06:02;;;;;;;20.05;2.63;;;;;;;;;;4980952;28;20425;-78
2021/03/16 08:08:37;;;;;;;26.20;3.17;;;;;;;;;;5001978;28;20053;-78
2021/03/16 08:11:07;;;;;;;23.70;3.08;;;;;;;;;;5004274;28;20046;-79
2021/03/16 08:13:33;;;;;;;19.65;2.97;;;;;;;;;;5001919;28;20092;-78
2021/03/16 08:16:09;;;;;;;13.88;2.55;;;;;;;;;;4979610;28;20049;-77
2021/03/16 08:18:35;;;;;;;23.65;2.65;;;;;;;;;;4991889;28;20378;-77
2021/03/16 08:21:09;;;;;;;13.85;2.50;;;;;;;;;;4991862;28;20052;-77
2021/03/16 08:23:35;;;;;;;11.05;3.10;;;;;;;;;;5007902;28;20038;-78
2021/03/16 08:26:02;;;;;;;20.35;3.08;;;;;;;;;;4996150;28;20046;-78
2021/03/16 08:28:28;;;;;;;17.15;2.53;;;;;;;;;;4984086;28;20106;-78
2021/03/16 08:30:54;;;;;;;17.15;3.00;;;;;;;;;;4994545;28;20409;-79
2021/03/16 08:33:21;;;;;;;18.35;2.53;;;;;;;;;;5000380;28;20054;-80
2021/03/16 08:35:48;;;;;;;15.00;2.40;;;;;;;;;;4992948;28;20129;-84
2021/03/16 08:38:24;;;;;;;18.63;2.63;;;;;;;;;;5001458;28;20042;-79
2021/03/16 08:40:51;;;;;;;12.95;2.30;;;;;;;;;;5000275;28;20046;-81
2021/03/16 08:43:18;;;;;;;14.32;2.55;;;;;;;;;;5010123;28;20057;-81
2021/03/16 08:45:45;;;;;;;15.98;2.47;;;;;;;;;;4982722;28;20041;-80
2021/03/16 08:48:11;;;;;;;13.52;2.40;;;;;;;;;;5000920;28;20357;-78
2021/03/16 08:50:37;;;;;;;13.57;2.22;;;;;;;;;;4986075;28;20054;-78
2021/03/16 08:53:04;;;;;;;13.90;2.40;;;;;;;;;;5004147;28;20056;-78
2021/03/16 08:55:30;;;;;;;9.30;1.77;;;;;;;;;;5008593;28;20038;-79
2021/03/16 08:57:57;;;;;;;10.15;2.33;;;;;;;;;;4993381;28;20042;-78
2021/03/16 09:00:24;;;;;;;15.68;2.45;;;;;;;;;;5007453;28;20453;-78
2021/03/16 09:02:51;;;;;;;10.15;1.83;;;;;;;;;;4986387;28;20072;-78
2021/03/16 09:05:19;;;;;;;13.57;1.92;;;;;;;;;;4985607;28;20429;-78
2021/03/16 09:07:45;;;;;;;10.85;1.98;;;;;;;;;;4980560;28;20413;-77
2021/03/16 09:10:12;;;;;;;11.30;2.17;;;;;;;;;;4991202;28;20037;-77
2021/03/16 09:12:43;;;;;;;13.48;2.35;;;;;;;;;;4984606;28;20042;-80
2021/03/16 09:15:13;;;;;;;10.05;1.70;;;;;;;;;;5001022;28;20118;-79
2021/03/16 09:17:41;;;;;;;11.52;2.65;;;;;;;;;;5000768;28;20038;-78
2021/03/16 09:20:16;;;;;;;15.70;2.05;;;;;;;;;;4999212;28;20046;-81
2021/03/16 09:22:45;;;;;;;17.88;2.45;;;;;;;;;;4992117;28;20053;-81
2021/03/16 09:25:12;;;;;;;12.50;2.20;;;;;;;;;;5000850;28;20046;-79
2021/03/16 09:27:39;;;;;;;13.20;1.95;;;;;;;;;;4983535;28;20152;-78
2021/03/16 09:30:07;;;;;;;11.57;1.60;;;;;;;;;;4992092;28;20045;-76
2021/03/16 09:32:34;;;;;;;13.20;1.80;;;;;;;;;;4990401;28;20053;-77
2021/03/16 09:35:00;;;;;;;10.10;1.67;;;;;;;;;;4988853;28;20485;-79
2021/03/16 09:37:26;;;;;;;13.98;3.00;;;;;;;;;;4990678;28;20120;-79
2021/03/16 09:39:53;;;;;;;9.55;1.80;;;;;;;;;;4989653;28;20088;-84
2021/03/16 09:42:30;;;;;;;16.77;2.67;;;;;;;;;;4993464;28;20052;-79
2021/03/16 09:44:58;;;;;;;13.73;2.88;;;;;;;;;;4992103;28;20382;-80
2021/03/16 09:47:25;;;;;;;9.98;2.38;;;;;;;;;;4984965;28;20478;-79
2021/03/16 09:50:02;;;;;;;11.73;2.13;;;;;;;;;;4989336;28;20470;-83
2021/03/16 09:52:28;;;;;;;11.75;2.53;;;;;;;;;;4991166;28;20060;-78
2021/03/16 09:54:54;;;;;;;19.35;3.17;;;;;;;;;;5005841;28;20386;-80
2021/03/16 09:57:20;;;;;;;12.45;2.20;;;;;;;;;;4995857;28;20538;-77
2021/03/16 09:59:46;;;;;;;16.00;3.05;;;;;;;;;;4986409;28;20073;-81
2021/03/16 10:02:13;;;;;;;13.77;2.10;;;;;;;;;;4990775;28;20164;-79
2021/03/16 10:04:49;;;;;;;11.82;2.40;;;;;;;;;;4991710;28;20038;-78
2021/03/16 10:07:29;;;;;;;12.73;1.55;;;;;;;;;;4982291;28;20088;-77
2021/03/16 10:10:05;;;;;;;11.20;1.27;;;;;;;;;;4994720;28;20041;-80
2021/03/16 10:12:31;;;;;;;14.10;2.65;;;;;;;;;;5010793;28;20350;-77
2021/03/16 10:14:57;;;;;;;15.82;2.22;;;;;;;;;;4993987;28;20466;-78
2021/03/16 10:17:24;;;;;;;11.23;1.60;;;;;;;;;;4992127;28;20038;-78
2021/03/16 10:20:01;;;;;;;11.07;1.83;;;;;;;;;;4990712;28;20457;-78
2021/03/16 10:22:28;;;;;;;15.98;2.10;;;;;;;;;;5012876;28;20042;-77
2021/03/16 10:24:55;;;;;;;12.68;1.90;;;;;;;;;;5009454;28;20046;-78
2021/03/16 10:27:40;;;;;;;12.25;1.50;;;;;;;;;;4990070;28;20038;-77
2021/03/16 10:30:06;;;;;;;;;;;;;;;;;;5009233;28;20069;-77
2021/03/16 10:32:32;;;;;;;12.57;2.15;;;;;;;;;;4998764;28;19921;-76
2021/03/16 10:34:59;;;;;;;13.60;1.73;;;;;;;;;;5003708;28;20045;-77
2021/03/16 10:37:25;;;;;;;13.27;2.30;;;;;;;;;;4994793;28;20469;-78
2021/03/16 10:39:52;;;;;;;11.57;2.25;;;;;;;;;;4984642;28;20041;-76
2021/03/16 10:42:18;;;;;;;11.18;1.65;;;;;;;;;;5003776;28;20052;-77
2021/03/16 10:44:45;;;;;;;10.20;1.77;;;;;;;;;;4993978;28;20046;-77
2021/03/16 10:47:11;;;;;;;17.60;1.83;;;;;;;;;;5000336;28;20041;-77
2021/03/16 10:49:38;;;;;;;13.10;2.30;;;;;;;;;;4981621;28;20062;-77
2021/03/16 10:52:04;;;;;;;6.70;1.30;;;;;;;;;;5005569;28;20128;-78
2021/03/16 10:54:30;;;;;;;10.02;1.58;;;;;;;;;;5012245;28;20046;-76
2021/03/16 10:56:57;;;;;;;9.45;1.77;;;;;;;;;;4995174;28;20492;-76
2021/03/16 10:59:24;;;;;;;16.23;2.22;;;;;;;;;;5009931;28;20489;-76
2021/03/16 11:01:51;;;;;;;8.98;2.00;;;;;;;;;;4995132;28;20103;-76
2021/03/16 11:04:18;;;;;;;11.40;1.65;;;;;;;;;;4998936;28;20057;-76
2021/03/16 11:06:45;;;;;;;15.00;2.22;;;;;;;;;;5010762;28;20470;-76
2021/03/16 11:09:12;;;;;;;10.20;1.95;;;;;;;;;;5003907;28;20069;-77
2021/03/16 11:11:38;;;;;;;11.60;1.67;;;;;;;;;;4982495;28;20049;-78
2021/03/16 11:14:04;;;;;;;12.55;1.38;;;;;;;;;;5011291;28;20173;-80
2021/03/16 11:16:30;;;;;;;11.27;2.60;;;;;;;;;;5003289;28;20078;-74
2021/03/16 11:18:56;;;;;;;12.43;2.08;;;;;;;;;;5008958;28;20833;-75
2021/03/16 11:21:22;;;;;;;8.98;1.48;;;;;;;;;;4982753;28;20046;-81
2021/03/16 11:23:49;;;;;;;9.85;1.65;;;;;;;;;;4994809;28;20199;-76
2021/03/16 11:26:15;;;;;;;8.93;1.77;;;;;;;;;;4979156;28;20046;-74
2021/03/16 11:28:42;;;;;;;15.88;2.33;;;;;;;;;;5001282;28;20045;-71
2021/03/16 11:31:08;;;;;;;7.40;1.70;;;;;;;;;;5009326;28;20045;-79
2021/03/16 11:33:34;;;;;;;11.77;1.80;;;;;;;;;;4995561;28;20053;-79
2021/03/16 11:36:00;;;;;;;7.05;1.38;;;;;;;;;;5011090;28;20042;-79
2021/03/16 11:38:26;;;;;;;11.43;2.25;;;;;;;;;;5000543;28;20057;-82
2021/03/16 11:40:53;;;;;;;10.57;1.80;;;;;;;;;;4994090;28;20790;-82
2021/03/16 11:43:19;;;;;;;13.50;2.50;;;;;;;;;;4994576;28;20369;-83
2021/03/16 11:45:45;;;;;;;11.43;1.80;;;;;;;;;;4993200;28;20125;-79
2021/03/16 11:48:12;;;;;;;9.45;1.52;;;;;;;;;;4990267;28;20069;-79
2021/03/16 11:50:38;;;;;;;11.40;1.50;;;;;;;;;;5008800;28;20049;-78
2021/03/16 11:53:05;;;;;;;6.93;1.50;;;;;;;;;;5010372;28;20057;-79
2021/03/16 11:55:31;;;;;;;13.30;1.67;;;;;;;;;;5009931;28;20034;-77
2021/03/16 11:57:57;;;;;;;10.85;2.10;;;;;;;;;;4991467;28;20155;-77
2021/03/16 12:00:24;;;;;;;14.18;2.00;;;;;;;;;;4963619;28;20477;-76
2021/03/16 12:02:50;;;;;;;11.85;2.47;;;;;;;;;;4998531;28;20070;-76
2021/03/16 12:05:16;;;;;;;12.50;1.60;;;;;;;;;;4987039;28;20120;-77
2021/03/16 12:07:42;;;;;;;10.70;1.40;;;;;;;;;;4993441;28;20034;-76
2021/03/16 12:10:09;;;;;;;11.00;1.30;;;;;;;;;;4996431;28;20046;-75
2021/03/16 12:12:35;;;;;;;11.13;1.70;;;;;;;;;;4996516;28;20117;-75
2021/03/16 12:15:01;;;;;;;9.20;1.50;;;;;;;;;;4991180;28;20432;-75
2021/03/16 12:17:27;;;;;;;9.10;1.40;;;;;;;;;;5007436;28;20119;-74
2021/03/16 12:19:53;;;;;;;12.77;1.90;;;;;;;;;;4996840;28;20038;-78
2021/03/16 12:22:20;;;;;;;13.65;1.55;;;;;;;;;;4976229;28;20433;-75
2021/03/16 12:24:47;;;;;;;11.63;1.60;;;;;;;;;;5000350;28;20117;-75
2021/03/16 12:27:13;;;;;;;9.55;1.58;;;;;;;;;;4984318;28;20382;-81
2021/03/16 12:29:40;;;;;;;12.57;1.52;;;;;;;;;;4988893;28;20117;-80
2021/03/16 12:32:08;;;;;;;9.05;1.55;;;;;;;;;;4994140;28;20045;-76
2021/03/16 12:34:34;;;;;;;7.80;1.58;;;;;;;;;;4985995;28;20060;-79
2021/03/16 12:37:00;;;;;;;11.80;1.98;;;;;;;;;;4966590;28;20478;-81
2021/03/16 12:39:26;;;;;;;10.55;2.17;;;;;;;;;;4994030;28;20258;-87
2021/03/16 12:41:52;;;;;;;4.95;1.27;;;;;;;;;;4994041;28;20068;-75
2021/03/16 12:44:18;;;;;;;8.02;1.27;;;;;;;;;;4991226;28;20038;-84
2021/03/16 12:46:45;;;;;;;12.80;1.90;;;;;;;;;;4994879;28;20076;-79
2021/03/16 12:49:11;;;;;;;10.52;1.23;;;;;;;;;;4974638;28;20387;-83
2021/03/16 12:51:37;;;;;;;13.57;1.95;;;;;;;;;;5004069;28;20061;-88
2021/03/16 12:54:03;;;;;;;9.13;1.60;;;;;;;;;;5000921;28;20046;-84
2021/03/16 12:56:29;;;;;;;10.18;1.77;;;;;;;;;;4992257;28;20451;-82
2021/03/16 12:58:56;;;;;;;11.55;1.80;;;;;;;;;;4993641;28;20038;-80
2021/03/16 13:01:22;;;;;;;9.55;1.60;;;;;;;;;;4997797;28;20048;-81
2021/03/16 13:03:48;;;;;;;14.57;1.85;;;;;;;;;;4995719;28;20053;-88
2021/03/16 13:06:14;;;;;;;9.15;1.50;;;;;;;;;;4990022;28;20045;-88
2021/03/16 13:08:40;;;;;;;10.63;1.58;;;;;;;;;;5000376;28;20042;-87
2021/03/16 13:11:06;;;;;;;10.18;1.30;;;;;;;;;;5023095;28;20049;-87
2021/03/16 13:13:32;;;;;;;9.00;1.45;;;;;;;;;;5030876;28;20049;-87
2021/03/16 13:15:59;;;;;;;12.05;2.00;;;;;;;;;;5020962;28;20038;-88
2021/03/16 13:18:25;;;;;;;12.07;1.77;;;;;;;;;;4994707;28;20046;-88
2021/03/16 13:20:51;;;;;;;11.10;1.52;;;;;;;;;;5010677;28;20057;-88
2021/03/16 13:23:17;;;;;;;10.13;2.00;;;;;;;;;;5014415;28;20046;-87
2021/03/16 13:25:43;;;;;;;5.88;1.10;;;;;;;;;;4995068;28;20053;-86
2021/03/16 13:28:09;;;;;;;11.48;1.40;;;;;;;;;;5011574;28;20080;-87
2021/03/16 13:30:36;;;;;;;4.85;1.45;;;;;;;;;;5017640;28;20056;-82
2021/03/16 13:33:02;;;;;;;10.10;2.42;;;;;;;;;;5015890;28;20156;-90
2021/03/16 13:35:28;;;;;;;12.35;1.60;;;;;;;;;;4988171;28;20164;-89
2021/03/16 13:37:57;;;;;;;7.28;1.58;;;;;;;;;;4996231;28;20047;-83
2021/03/16 13:40:23;;;;;;;10.35;1.88;;;;;;;;;;4987924;28;20478;-86
2021/03/16 13:42:49;;;;;;;11.07;1.73;;;;;;;;;;5010257;28;20484;-86
2021/03/16 13:45:17;;;;;;;10.93;1.65;;;;;;;;;;4991932;28;20049;-83
2021/03/16 13:47:44;;;;;;;13.50;1.67;;;;;;;;;;4995998;28;20473;-80
2021/03/16 13:50:10;;;;;;;8.55;1.20;;;;;;;;;;4984997;28;20485;-79
2021/03/16 13:52:36;;;;;;;9.77;1.42;;;;;;;;;;4999510;28;20073;-80
2021/03/16 13:55:03;;;;;;;11.10;1.60;;;;;;;;;;4958633;28;20409;-80
2021/03/16 13:57:29;;;;;;;12.18;1.95;;;;;;;;;;4991596;28;20041;-81
2021/03/16 13:59:55;;;;;;;9.63;1.83;;;;;;;;;;4958728;28;20394;-80
2021/03/16 14:02:21;;;;;;;8.95;1.42;;;;;;;;;;4991003;28;20379;-80
2021/03/16 14:04:47;;;;;;;14.23;1.67;;;;;;;;;;4993349;28;20069;-80
2021/03/16 14:07:14;;;;;;;11.38;1.60;;;;;;;;;;4999369;28;20125;-81
2021/03/16 14:09:40;;;;;;;13.02;1.33;;;;;;;;;;4987437;28;20072;-80
2021/03/16 14:12:06;;;;;;;10.80;1.60;;;;;;;;;;4974587;28;20042;-81
2021/03/16 14:14:32;;;;;;;9.75;1.85;;;;;;;;;;4990502;28;20046;-80
2021/03/16 14:16:59;;;;;;;10.63;2.33;;;;;;;;;;4992587;28;20089;-80
2021/03/16 14:19:25;;;;;;;8.07;1.48;;;;;;;;;;4964828;28;20119;-81
2021/03/16 14:21:52;;;;;;;11.38;1.48;;;;;;;;;;4984793;28;20166;-80
2021/03/16 14:24:18;;;;;;;11.18;1.95;;;;;;;;;;4981808;28;20084;-81
2021/03/16 14:26:44;;;;;;;18.27;2.25;;;;;;;;;;4993325;28;20057;-80
2021/03/16 14:29:11;;;;;;;12.18;1.73;;;;;;;;;;4996495;28;20057;-80
2021/03/16 14:31:37;;;;;;;11.73;2.03;;;;;;;;;;4992275;28;20057;-80